Time;durP1;ratioP1;P1;durP2;ratioP2;P2;SDS_P1;SDS_P2;PMS_P1;PMS_P2;Temp;Humidity;BMP_temperature;BMP_pressure;BME280_temperature;BME280_humidity;BME280_pressure;Samples;Min_cycle;Max_cycle;Signal;HPM_P1;HPM_P2
2024/04/04 00:00:23;;;;;;;0.67;0.67;;;12.10;99.90;;;;;;5114793;28;20196;-64
2024/04/04 00:02:50;;;;;;;1.93;1.00;;;11.90;99.90;;;;;;5114975;28;20422;-64
2024/04/04 00:05:16;;;;;;;1.73;0.80;;;12.30;99.90;;;;;;5114928;28;20406;-64
2024/04/04 00:07:45;;;;;;;0.87;0.87;;;12.30;99.90;;;;;;5114916;28;20406;-64
2024/04/04 00:10:10;;;;;;;0.60;0.60;;;12.20;99.90;;;;;;5114421;28;20180;-64
2024/04/04 00:12:36;;;;;;;0.90;0.77;;;12.60;99.90;;;;;;5114502;28;20432;-64
2024/04/04 00:15:01;;;;;;;8.30;0.80;;;12.60;99.90;;;;;;5114753;28;20200;-64
2024/04/04 00:17:27;;;;;;;3.50;0.60;;;12.30;99.90;;;;;;5114818;28;20176;-64
2024/04/04 00:19:53;;;;;;;1.60;0.93;;;12.30;99.90;;;;;;5114481;28;20161;-64
2024/04/04 00:22:18;;;;;;;2.00;0.77;;;12.60;99.90;;;;;;5114737;28;20195;-63
2024/04/04 00:24:44;;;;;;;2.00;1.10;;;12.70;99.90;;;;;;5114537;28;20164;-64
2024/04/04 00:27:09;;;;;;;0.80;0.80;;;12.80;99.90;;;;;;5114285;28;20540;-64
2024/04/04 00:29:35;;;;;;;0.97;0.90;;;13.00;99.90;;;;;;5114006;28;20164;-63
2024/04/04 00:32:01;;;;;;;1.60;0.90;;;13.10;99.90;;;;;;5113866;28;20193;-64
2024/04/04 00:34:27;;;;;;;1.10;1.00;;;12.70;99.90;;;;;;5115067;28;20172;-63
2024/04/04 00:36:52;;;;;;;0.70;0.70;;;12.70;99.90;;;;;;5114414;28;20711;-64
2024/04/04 00:39:18;;;;;;;2.67;0.80;;;12.70;99.90;;;;;;5113068;28;20921;-64
2024/04/04 00:41:43;;;;;;;1.37;1.27;;;12.60;99.90;;;;;;5114004;28;20173;-63
2024/04/04 00:44:09;;;;;;;2.30;0.80;;;12.30;99.90;;;;;;5113960;28;20283;-64
2024/04/04 00:46:36;;;;;;;1.13;0.90;;;12.40;99.90;;;;;;5113947;28;20194;-64
2024/04/04 00:49:02;;;;;;;0.47;0.47;;;12.60;99.90;;;;;;5113452;28;20180;-64
2024/04/04 00:51:28;;;;;;;2.93;0.87;;;12.70;99.90;;;;;;5113466;28;20496;-64
2024/04/04 00:53:57;;;;;;;1.60;0.93;;;12.70;99.90;;;;;;5112945;28;20422;-64
2024/04/04 00:56:23;;;;;;;0.87;0.60;;;12.30;99.90;;;;;;5113302;28;20445;-64
2024/04/04 00:58:50;;;;;;;0.97;0.60;;;12.20;99.90;;;;;;5113193;28;20895;-63
2024/04/04 01:01:15;;;;;;;0.55;0.55;;;12.40;99.90;;;;;;5113301;28;20899;-64
2024/04/04 01:03:41;;;;;;;1.73;0.77;;;12.60;99.90;;;;;;5113698;28;20192;-64
2024/04/04 01:06:07;;;;;;;0.57;0.57;;;12.60;99.90;;;;;;5113469;28;20236;-64
2024/04/04 01:08:35;;;;;;;1.53;0.63;;;12.30;99.90;;;;;;5112753;28;20421;-64
2024/04/04 01:11:01;;;;;;;2.70;0.80;;;12.30;99.90;;;;;;5112726;28;20183;-64
2024/04/04 01:13:27;;;;;;;0.80;0.80;;;12.30;99.90;;;;;;5112973;28;20192;-64
2024/04/04 01:15:52;;;;;;;0.87;0.60;;;12.00;99.90;;;;;;5112904;28;20227;-64
2024/04/04 01:18:19;;;;;;;3.23;0.80;;;12.00;99.90;;;;;;5113104;28;20168;-65
2024/04/04 01:20:45;;;;;;;0.70;0.70;;;11.90;99.90;;;;;;5112741;28;20401;-64
2024/04/04 01:23:11;;;;;;;2.40;1.10;;;12.20;99.90;;;;;;5112737;28;20429;-65
2024/04/04 01:25:36;;;;;;;0.70;0.70;;;12.40;99.90;;;;;;5113236;28;20406;-64
2024/04/04 01:28:02;;;;;;;1.40;0.80;;;12.60;99.90;;;;;;5112821;28;20225;-64
2024/04/04 01:30:28;;;;;;;1.43;0.70;;;12.70;99.90;;;;;;5112503;28;20637;-64
2024/04/04 01:32:53;;;;;;;1.63;0.50;;;12.50;99.90;;;;;;5112773;28;20449;-64
2024/04/04 01:35:19;;;;;;;0.70;0.70;;;12.70;99.90;;;;;;5112656;28;20188;-64
2024/04/04 01:37:45;;;;;;;1.03;0.60;;;12.90;99.70;;;;;;5112536;28;20168;-64
2024/04/04 01:40:10;;;;;;;3.20;1.03;;;12.80;99.80;;;;;;5112382;28;20180;-64
2024/04/04 01:42:36;;;;;;;0.40;0.40;;;12.70;99.90;;;;;;5112529;28;20192;-64
2024/04/04 01:45:02;;;;;;;3.40;0.80;;;12.80;99.90;;;;;;5112745;28;20187;-64
2024/04/04 01:47:28;;;;;;;1.23;0.73;;;12.90;99.90;;;;;;5112644;28;20187;-64
2024/04/04 01:49:54;;;;;;;2.07;0.83;;;12.80;99.90;;;;;;5112283;28;20406;-65
2024/04/04 01:52:19;;;;;;;1.37;0.50;;;12.80;99.90;;;;;;5116223;28;20192;-64
2024/04/04 01:54:45;;;;;;;0.60;0.60;;;12.60;99.90;;;;;;5116511;28;20190;-64
2024/04/04 01:57:10;;;;;;;0.60;0.60;;;12.40;99.90;;;;;;5116806;28;20630;-65
2024/04/04 01:59:36;;;;;;;2.40;1.00;;;12.20;99.90;;;;;;5116630;28;20217;-64
2024/04/04 02:02:02;;;;;;;1.63;1.10;;;12.40;99.90;;;;;;5116520;28;20225;-64
2024/04/04 02:04:30;;;;;;;2.60;0.90;;;12.40;99.90;;;;;;5116751;28;20545;-64
2024/04/04 02:06:55;;;;;;;2.60;0.87;;;12.50;99.90;;;;;;5116500;28;20172;-65
2024/04/04 02:09:22;;;;;;;2.20;2.00;;;12.50;99.90;;;;;;5116096;28;20798;-65
2024/04/04 02:12:21;;;;;;;6.07;1.10;;;12.40;99.90;;;;;;5116959;28;20442;-64
2024/04/04 02:14:47;;;;;;;3.87;1.20;;;12.50;99.90;;;;;;5115010;28;20742;-65
2024/04/04 02:17:12;;;;;;;2.00;0.90;;;12.60;99.90;;;;;;5116748;28;20409;-64
2024/04/04 02:19:39;;;;;;;1.17;0.73;;;12.60;99.90;;;;;;5116011;28;20243;-64
2024/04/04 02:22:04;;;;;;;1.63;0.80;;;12.30;99.90;;;;;;5116068;28;20165;-64
2024/04/04 02:24:30;;;;;;;1.07;0.90;;;12.30;99.90;;;;;;5116292;28;20410;-64
2024/04/04 02:26:55;;;;;;;2.70;0.83;;;12.30;99.90;;;;;;5116480;28;20164;-65
2024/04/04 02:29:22;;;;;;;6.10;1.50;;;12.50;99.90;;;;;;5116332;28;20179;-64
2024/04/04 02:31:48;;;;;;;5.03;1.50;;;12.60;99.90;;;;;;5116673;28;20168;-64
2024/04/04 02:34:13;;;;;;;1.73;1.10;;;12.50;99.90;;;;;;5115826;28;20601;-64
2024/04/04 02:36:39;;;;;;;2.00;0.97;;;12.30;99.90;;;;;;5116245;28;20204;-64
2024/04/04 02:39:04;;;;;;;2.67;0.83;;;12.20;99.90;;;;;;5115830;28;20164;-64
2024/04/04 02:41:30;;;;;;;1.80;0.97;;;12.40;99.90;;;;;;5115919;28;20182;-64
2024/04/04 02:43:56;;;;;;;1.00;0.97;;;12.40;99.90;;;;;;5115796;28;20245;-65
2024/04/04 02:46:22;;;;;;;5.00;1.00;;;12.30;99.90;;;;;;5116056;28;20172;-64
2024/04/04 02:48:48;;;;;;;1.70;1.10;;;12.20;99.90;;;;;;5115877;28;20181;-64
2024/04/04 02:51:13;;;;;;;2.30;0.93;;;12.30;99.90;;;;;;5115710;28;20405;-64
2024/04/04 02:53:40;;;;;;;1.33;0.97;;;12.10;99.90;;;;;;5115520;28;20624;-64
2024/04/04 02:56:06;;;;;;;3.73;1.10;;;11.80;99.90;;;;;;5115539;28;20202;-64
2024/04/04 02:58:31;;;;;;;2.73;0.83;;;12.00;99.90;;;;;;5115210;28;20406;-65
2024/04/04 03:01:03;;;;;;;1.90;0.80;;;11.90;99.90;;;;;;5115438;28;20188;-65
2024/04/04 03:03:29;;;;;;;2.87;1.10;;;12.00;99.90;;;;;;5114213;28;20244;-65
2024/04/04 03:05:54;;;;;;;1.00;0.77;;;12.10;99.90;;;;;;5115221;28;20418;-65
2024/04/04 03:08:20;;;;;;;1.13;0.97;;;12.00;99.90;;;;;;5115247;28;20628;-64
2024/04/04 03:10:46;;;;;;;1.37;0.70;;;12.30;99.90;;;;;;5115154;28;20413;-65
2024/04/04 03:13:12;;;;;;;2.00;0.67;;;12.40;99.90;;;;;;5115064;28;20211;-65
2024/04/04 03:15:37;;;;;;;2.30;1.10;;;12.50;99.90;;;;;;5115194;28;20797;-64
2024/04/04 03:18:03;;;;;;;2.87;1.10;;;12.10;99.90;;;;;;5115139;28;20996;-64
2024/04/04 03:20:29;;;;;;;5.93;1.43;;;12.10;99.90;;;;;;5114717;28;20168;-64
2024/04/04 03:22:57;;;;;;;2.10;0.90;;;12.30;99.90;;;;;;5114854;28;20176;-64
2024/04/04 03:25:22;;;;;;;1.47;0.80;;;12.30;99.90;;;;;;5115118;28;20245;-65
2024/04/04 03:27:48;;;;;;;1.30;1.00;;;12.40;99.90;;;;;;5114781;28;20406;-65
2024/04/04 03:30:14;;;;;;;4.50;1.33;;;12.60;99.90;;;;;;5114194;28;20175;-64
2024/04/04 03:32:39;;;;;;;3.23;1.00;;;12.70;99.90;;;;;;5114768;28;20204;-65
2024/04/04 03:35:06;;;;;;;1.83;1.10;;;12.80;99.90;;;;;;5114011;28;20743;-65
2024/04/04 03:37:33;;;;;;;2.77;1.30;;;12.80;99.70;;;;;;5105953;28;20695;-65
2024/04/04 03:39:59;;;;;;;3.50;0.77;;;12.80;99.60;;;;;;5108355;28;20457;-64
2024/04/04 03:42:26;;;;;;;0.90;0.60;;;12.60;99.70;;;;;;5114992;28;20486;-64
2024/04/04 03:44:52;;;;;;;4.07;0.80;;;12.70;99.90;;;;;;5115935;28;20180;-64
2024/04/04 03:47:18;;;;;;;1.53;0.90;;;12.60;99.50;;;;;;5115932;28;20498;-64
2024/04/04 03:49:44;;;;;;;3.50;1.67;;;12.70;99.80;;;;;;5115098;28;20406;-64
2024/04/04 03:52:10;;;;;;;2.97;0.83;;;12.80;99.70;;;;;;5115080;28;20554;-65
2024/04/04 03:54:36;;;;;;;2.50;0.73;;;13.00;99.40;;;;;;5099923;28;20438;-65
2024/04/04 03:57:01;;;;;;;1.37;0.80;;;13.00;99.40;;;;;;5113982;28;20461;-65
2024/04/04 03:59:27;;;;;;;4.80;1.33;;;13.10;98.90;;;;;;5114362;28;20169;-64
2024/04/04 04:01:53;;;;;;;1.37;0.83;;;13.00;99.00;;;;;;5115024;28;20177;-62
2024/04/04 04:04:19;;;;;;;0.93;0.90;;;12.80;99.10;;;;;;5102740;28;20270;-63
2024/04/04 04:06:45;;;;;;;0.73;0.60;;;12.70;99.30;;;;;;5095368;28;20495;-63
2024/04/04 04:09:11;;;;;;;2.83;1.17;;;12.70;99.40;;;;;;5095437;28;20470;-63
2024/04/04 04:11:36;;;;;;;1.03;1.00;;;12.60;99.50;;;;;;5094957;28;20613;-63
2024/04/04 04:14:03;;;;;;;5.90;1.43;;;12.50;99.80;;;;;;5094972;28;20462;-63
2024/04/04 04:16:28;;;;;;;0.80;0.70;;;12.70;99.40;;;;;;5096288;28;20693;-63
2024/04/04 04:18:54;;;;;;;1.00;0.63;;;12.80;99.40;;;;;;5095813;28;20241;-64
2024/04/04 04:21:24;;;;;;;1.80;1.20;;;12.90;99.40;;;;;;5096264;28;20173;-63
2024/04/04 04:23:51;;;;;;;5.30;1.30;;;12.90;99.30;;;;;;5096838;28;20217;-63
2024/04/04 04:26:18;;;;;;;0.60;0.60;;;12.80;99.20;;;;;;5096596;28;20438;-63
2024/04/04 04:28:44;;;;;;;2.93;1.70;;;12.40;99.50;;;;;;5094970;28;20422;-63
2024/04/04 04:31:29;;;;;;;7.70;0.90;;;12.00;99.90;;;;;;5095231;28;21020;-64
2024/04/04 04:33:56;;;;;;;1.40;0.70;;;11.90;99.90;;;;;;5095752;28;20507;-63
2024/04/04 04:36:26;;;;;;;3.90;0.90;;;12.00;99.90;;;;;;5096115;28;20525;-63
2024/04/04 04:38:52;;;;;;;0.85;0.85;;;12.20;99.90;;;;;;5095089;28;20406;-63
2024/04/04 04:41:18;;;;;;;6.97;1.23;;;11.80;99.90;;;;;;5095127;28;20172;-64
2024/04/04 04:43:46;;;;;;;0.80;0.60;;;11.90;99.90;;;;;;5095454;28;20431;-63
2024/04/04 04:46:16;;;;;;;3.63;1.47;;;11.70;99.90;;;;;;5097207;28;20493;-63
2024/04/04 04:48:42;;;;;;;1.05;0.95;;;11.30;99.90;;;;;;5096056;28;20900;-63
2024/04/04 04:51:08;;;;;;;2.25;1.00;;;10.80;99.90;;;;;;5095872;28;20180;-63
2024/04/04 04:53:34;;;;;;;4.03;1.48;;;10.50;99.90;;;;;;5095112;28;20276;-64
2024/04/04 04:56:00;;;;;;;1.25;0.65;;;10.40;99.90;;;;;;5112700;28;20626;-63
2024/04/04 04:58:27;;;;;;;0.70;0.70;;;10.40;99.90;;;;;;5114909;28;20188;-62
2024/04/04 05:00:53;;;;;;;1.85;1.35;;;10.30;99.90;;;;;;5113984;28;20164;-64
2024/04/04 05:03:23;;;;;;;1.17;1.00;;;10.10;99.90;;;;;;5115152;28;20195;-63
2024/04/04 05:05:52;;;;;;;3.60;0.95;;;10.00;99.90;;;;;;5115247;28;20217;-63
2024/04/04 05:08:19;;;;;;;2.00;0.80;;;10.00;99.90;;;;;;5116172;28;20274;-63
2024/04/04 05:10:46;;;;;;;3.80;1.00;;;9.90;99.90;;;;;;5113725;28;20641;-63
2024/04/04 05:13:11;;;;;;;13.65;1.65;;;10.00;99.90;;;;;;5115483;28;20699;-64
2024/04/04 05:15:53;;;;;;;1.17;1.07;;;10.00;99.90;;;;;;5116123;28;20184;-63
2024/04/04 05:18:22;;;;;;;1.80;0.85;;;10.00;99.90;;;;;;5115332;28;20151;-64
2024/04/04 05:20:48;;;;;;;1.10;0.98;;;10.10;99.90;;;;;;5114671;28;20168;-63
2024/04/04 05:23:13;;;;;;;1.90;1.43;;;10.20;99.90;;;;;;5114618;28;20222;-64
2024/04/04 05:25:39;;;;;;;3.93;1.67;;;10.20;99.90;;;;;;5114014;28;20180;-65
2024/04/04 05:28:06;;;;;;;1.43;0.90;;;10.20;99.90;;;;;;5114164;28;20555;-64
2024/04/04 05:30:32;;;;;;;0.60;0.55;;;10.20;99.90;;;;;;5113893;28;20477;-63
2024/04/04 05:33:01;;;;;;;1.53;0.90;;;10.30;99.90;;;;;;5113803;28;20216;-64
2024/04/04 05:35:28;;;;;;;0.60;0.60;;;10.30;99.90;;;;;;5113337;28;20448;-63
2024/04/04 05:37:55;;;;;;;3.42;0.98;;;10.40;99.90;;;;;;5113318;28;20172;-63
2024/04/04 05:40:20;;;;;;;3.28;0.73;;;10.40;99.90;;;;;;5113797;28;20183;-64
2024/04/04 05:42:46;;;;;;;3.10;0.87;;;10.50;99.90;;;;;;5113522;28;20192;-63
2024/04/04 05:45:11;;;;;;;1.47;0.60;;;10.60;99.90;;;;;;5113046;28;20692;-64
2024/04/04 05:47:37;;;;;;;2.20;0.87;;;10.60;99.90;;;;;;5113212;28;20164;-64
2024/04/04 05:50:03;;;;;;;1.00;0.80;;;10.70;99.90;;;;;;5113991;28;20172;-65
2024/04/04 05:52:29;;;;;;;1.23;0.60;;;10.70;99.90;;;;;;5114297;28;20681;-65
2024/04/04 05:54:55;;;;;;;7.87;1.10;;;10.70;99.90;;;;;;5114014;28;20432;-65
2024/04/04 05:57:20;;;;;;;2.03;1.27;;;10.60;99.90;;;;;;5114264;28;20175;-64
2024/04/04 05:59:46;;;;;;;1.53;0.97;;;10.60;99.90;;;;;;5113898;28;20259;-65
2024/04/04 06:02:12;;;;;;;0.87;0.80;;;10.60;99.90;;;;;;5114604;28;20200;-65
2024/04/04 06:04:37;;;;;;;2.07;0.70;;;10.60;99.90;;;;;;5114562;28;20172;-64
2024/04/04 06:07:04;;;;;;;2.10;0.80;;;10.70;99.90;;;;;;5114181;28;20588;-64
2024/04/04 06:09:29;;;;;;;2.20;0.50;;;10.70;99.90;;;;;;5113888;28;20467;-65
2024/04/04 06:11:55;;;;;;;0.90;0.80;;;10.80;99.90;;;;;;5114142;28;20895;-65
2024/04/04 06:14:21;;;;;;;9.57;1.20;;;10.90;99.90;;;;;;5114212;28;20176;-65
2024/04/04 06:16:47;;;;;;;9.40;1.50;;;11.00;99.90;;;;;;5114178;28;20286;-65
2024/04/04 06:19:13;;;;;;;1.97;0.90;;;11.20;99.90;;;;;;5114180;28;20641;-65
2024/04/04 06:21:38;;;;;;;2.73;0.80;;;11.50;99.90;;;;;;5114205;28;20402;-65
2024/04/04 06:24:04;;;;;;;2.90;1.77;;;11.60;99.90;;;;;;5113880;28;20270;-65
2024/04/04 06:26:30;;;;;;;1.57;0.83;;;11.80;99.90;;;;;;5114224;28;20176;-65
2024/04/04 06:28:56;;;;;;;1.47;1.37;;;12.00;99.90;;;;;;5114060;28;20465;-65
2024/04/04 06:31:22;;;;;;;2.23;1.40;;;12.20;99.90;;;;;;5114619;28;20177;-64
2024/04/04 06:33:48;;;;;;;0.93;0.93;;;12.40;99.90;;;;;;5114023;28;20849;-63
2024/04/04 06:36:16;;;;;;;1.70;1.20;;;12.80;99.90;;;;;;5113740;28;20466;-63
2024/04/04 06:38:41;;;;;;;2.77;0.80;;;13.20;99.90;;;;;;5117565;28;20409;-63
2024/04/04 06:41:07;;;;;;;2.10;1.03;;;13.50;99.90;;;;;;5117858;28;20415;-64
2024/04/04 06:43:33;;;;;;;0.80;0.70;;;13.70;99.30;;;;;;5117782;28;20188;-65
2024/04/04 06:45:58;;;;;;;1.83;0.97;;;13.50;98.60;;;;;;5117591;28;20176;-63
2024/04/04 06:48:25;;;;;;;0.83;0.80;;;13.40;98.70;;;;;;5117381;28;20204;-63
2024/04/04 06:50:51;;;;;;;1.17;0.60;;;13.00;98.70;;;;;;5117357;28;20442;-63
2024/04/04 06:53:16;;;;;;;2.70;1.17;;;12.70;99.30;;;;;;5118016;28;20192;-63
2024/04/04 06:55:42;;;;;;;1.17;1.07;;;12.40;99.70;;;;;;5117909;28;20613;-63
2024/04/04 06:58:08;;;;;;;1.90;1.20;;;12.10;99.90;;;;;;5117374;28;20187;-63
2024/04/04 07:00:33;;;;;;;3.07;1.20;;;12.00;99.90;;;;;;5117411;28;20641;-64
2024/04/04 07:02:59;;;;;;;6.50;1.10;;;11.90;99.90;;;;;;5117337;28;20229;-63
2024/04/04 07:05:25;;;;;;;5.57;1.97;;;11.90;99.90;;;;;;5117722;28;20206;-63
2024/04/04 07:07:51;;;;;;;0.67;0.67;;;12.00;99.90;;;;;;5117548;28;20173;-63
2024/04/04 07:10:17;;;;;;;1.47;0.97;;;12.10;99.90;;;;;;5117261;28;20176;-64
2024/04/04 07:12:42;;;;;;;2.93;1.00;;;12.20;99.90;;;;;;5117189;28;20418;-64
2024/04/04 07:15:08;;;;;;;1.00;0.63;;;12.40;99.90;;;;;;5117581;28;20179;-64
2024/04/04 07:17:34;;;;;;;1.80;1.70;;;12.70;99.90;;;;;;5116878;28;20164;-64
2024/04/04 07:19:59;;;;;;;3.23;1.63;;;13.10;99.90;;;;;;5116663;28;20263;-64
2024/04/04 07:22:26;;;;;;;1.43;1.27;;;13.50;99.40;;;;;;5116523;28;20219;-63
2024/04/04 07:24:52;;;;;;;2.00;0.97;;;14.30;98.90;;;;;;5116989;28;20172;-64
2024/04/04 07:27:18;;;;;;;31.83;16.60;;;14.80;96.50;;;;;;5116797;28;20444;-63
2024/04/04 07:29:44;;;;;;;24.53;11.77;;;15.20;96.20;;;;;;5116739;28;20406;-64
2024/04/04 07:32:10;;;;;;;3.50;2.80;;;15.10;95.30;;;;;;5116665;28;20833;-63
2024/04/04 07:34:36;;;;;;;13.63;9.20;;;15.00;94.60;;;;;;5117009;28;20449;-63
2024/04/04 07:37:02;;;;;;;4.17;2.90;;;14.70;94.90;;;;;;5116679;28;20214;-63
2024/04/04 07:39:29;;;;;;;3.73;1.37;;;14.60;94.80;;;;;;5116936;28;20399;-64
2024/04/04 07:41:55;;;;;;;18.33;9.73;;;14.30;95.00;;;;;;5116491;28;20410;-63
2024/04/04 07:44:21;;;;;;;2.40;1.20;;;14.20;95.80;;;;;;5116938;28;20394;-63
2024/04/04 07:46:50;;;;;;;4.80;1.17;;;14.00;95.80;;;;;;5116921;28;20229;-63
2024/04/04 07:49:17;;;;;;;3.03;2.50;;;13.60;96.00;;;;;;5116530;28;20173;-63
2024/04/04 07:51:43;;;;;;;3.63;1.60;;;13.30;96.50;;;;;;5117162;28;20406;-63
2024/04/04 07:54:08;;;;;;;6.87;5.10;;;13.10;97.10;;;;;;5117399;28;21021;-63
2024/04/04 07:56:34;;;;;;;4.43;1.63;;;13.00;97.70;;;;;;5116464;28;20549;-63
2024/04/04 07:59:00;;;;;;;1.60;1.00;;;12.90;97.70;;;;;;5098802;22;20305;-60
2024/04/04 08:01:26;;;;;;;5.33;3.93;;;12.70;97.80;;;;;;5072926;28;20194;-60
2024/04/04 08:03:52;;;;;;;3.03;2.07;;;12.60;98.50;;;;;;5073337;28;20173;-60
2024/04/04 08:06:19;;;;;;;7.73;1.50;;;12.70;98.50;;;;;;5073306;28;20408;-60
2024/04/04 08:08:45;;;;;;;3.57;1.80;;;12.80;98.60;;;;;;5073186;28;20427;-60
2024/04/04 08:11:14;;;;;;;2.97;1.47;;;12.80;98.20;;;;;;5073100;28;20181;-60
2024/04/04 08:13:41;;;;;;;3.03;1.27;;;13.10;98.60;;;;;;5073218;28;20556;-60
2024/04/04 08:16:07;;;;;;;0.70;0.60;;;13.10;97.70;;;;;;5072936;28;20448;-60
2024/04/04 08:18:33;;;;;;;8.90;6.30;;;13.10;97.70;;;;;;5073053;28;20439;-60
2024/04/04 08:20:58;;;;;;;2.23;1.53;;;12.90;97.90;;;;;;5072885;28;20929;-60
2024/04/04 08:23:24;;;;;;;2.60;1.40;;;13.00;98.30;;;;;;5073063;28;20352;-60
2024/04/04 08:25:58;;;;;;;1.87;1.77;;;13.20;98.40;;;;;;5073129;28;20182;-60
2024/04/04 08:28:24;;;;;;;2.97;2.67;;;13.20;98.30;;;;;;5072703;28;20416;-60
2024/04/04 08:30:57;;;;;;;2.93;1.10;;;13.40;97.90;;;;;;5072513;28;20435;-60
2024/04/04 08:33:24;;;;;;;4.47;3.00;;;13.40;97.10;;;;;;5072814;28;20491;-60
2024/04/04 08:35:50;;;;;;;1.93;1.10;;;13.50;97.80;;;;;;5072665;28;20454;-60
2024/04/04 08:38:16;;;;;;;1.77;1.20;;;13.50;97.70;;;;;;5072524;28;20431;-60
2024/04/04 08:40:42;;;;;;;2.00;1.10;;;13.60;97.90;;;;;;5072258;28;20770;-60
2024/04/04 08:43:08;;;;;;;2.90;1.10;;;13.70;98.10;;;;;;5072542;28;20600;-60
2024/04/04 08:45:47;;;;;;;1.03;0.87;;;13.60;97.30;;;;;;5072531;28;20411;-60
2024/04/04 08:48:17;;;;;;;0.60;0.60;;;13.40;96.80;;;;;;5072442;28;20423;-60
2024/04/04 08:50:47;;;;;;;1.23;0.70;;;13.20;97.00;;;;;;5072287;28;20451;-60
2024/04/04 08:53:19;;;;;;;1.97;1.10;;;13.10;97.40;;;;;;5072406;28;20408;-60
2024/04/04 08:55:46;;;;;;;2.53;1.00;;;13.10;97.80;;;;;;5072723;28;20447;-60
2024/04/04 08:58:13;;;;;;;2.17;1.90;;;13.20;98.00;;;;;;5072227;28;20447;-60
2024/04/04 09:00:40;;;;;;;0.70;0.70;;;13.30;98.50;;;;;;5071292;28;20418;-60
2024/04/04 09:03:07;;;;;;;1.23;1.20;;;13.50;98.00;;;;;;5072573;28;20419;-60
2024/04/04 09:05:33;;;;;;;7.03;2.30;;;13.50;97.50;;;;;;5072169;28;20421;-60
2024/04/04 09:08:01;;;;;;;1.27;1.17;;;13.50;97.30;;;;;;5071994;28;20424;-60
2024/04/04 09:10:27;;;;;;;2.50;2.30;;;13.50;97.80;;;;;;5071906;28;20415;-60
2024/04/04 09:13:06;;;;;;;3.50;1.13;;;13.60;97.30;;;;;;5070712;28;20445;-60
2024/04/04 09:15:32;;;;;;;4.83;1.47;;;13.90;97.30;;;;;;5071550;28;20203;-60
2024/04/04 09:18:11;;;;;;;1.70;0.73;;;14.30;97.30;;;;;;5071668;28;20423;-62
2024/04/04 09:20:40;;;;;;;1.87;1.37;;;14.60;95.70;;;;;;5071958;28;20885;-61
2024/04/04 09:23:07;;;;;;;1.47;1.30;;;14.90;95.00;;;;;;5072194;28;20412;-61
2024/04/04 09:25:35;;;;;;;4.67;0.90;;;14.90;94.10;;;;;;5072092;28;20505;-61
2024/04/04 09:28:03;;;;;;;1.53;0.90;;;15.00;93.70;;;;;;5071799;28;20450;-61
2024/04/04 09:30:32;;;;;;;1.70;1.00;;;14.90;93.40;;;;;;5071938;28;20415;-61
2024/04/04 09:32:58;;;;;;;1.33;0.77;;;14.90;93.40;;;;;;5071741;28;20407;-61
2024/04/04 09:35:23;;;;;;;1.63;0.97;;;15.00;93.40;;;;;;5071664;28;20465;-61
2024/04/04 09:37:50;;;;;;;0.90;0.80;;;15.10;92.90;;;;;;5071696;28;20787;-61
2024/04/04 09:40:16;;;;;;;1.63;0.70;;;15.10;93.80;;;;;;5071546;28;20175;-61
2024/04/04 09:42:44;;;;;;;1.53;0.87;;;15.10;93.10;;;;;;5071668;28;20407;-60
2024/04/04 09:45:14;;;;;;;1.60;1.00;;;15.10;93.40;;;;;;5071735;28;20407;-61
2024/04/04 09:47:47;;;;;;;2.20;1.27;;;15.10;93.80;;;;;;5072181;28;20427;-59
2024/04/04 09:50:20;;;;;;;76.23;37.33;;;15.10;93.30;;;;;;5071471;28;20402;-61
2024/04/04 09:52:48;;;;;;;10.03;5.90;;;15.00;93.40;;;;;;5071904;28;20419;-61
2024/04/04 09:55:17;;;;;;;6.00;5.13;;;15.00;93.30;;;;;;5071675;28;20422;-61
2024/04/04 09:57:43;;;;;;;1.70;1.60;;;14.90;93.80;;;;;;5071666;28;20447;-60
2024/04/04 10:00:17;;;;;;;3.27;1.23;;;15.00;93.70;;;;;;5071212;28;20412;-60
2024/04/04 10:02:57;;;;;;;4.53;1.63;;;14.90;93.40;;;;;;5071769;28;20855;-60
2024/04/04 10:05:34;;;;;;;2.23;0.93;;;14.70;93.40;;;;;;5071613;28;20411;-61
2024/04/04 10:08:11;;;;;;;2.60;1.37;;;14.70;94.00;;;;;;5071387;28;20477;-60
2024/04/04 10:10:40;;;;;;;0.97;0.87;;;14.80;93.50;;;;;;5071158;28;20503;-60
2024/04/04 10:13:07;;;;;;;1.63;1.00;;;14.80;93.30;;;;;;5074679;28;20498;-61
2024/04/04 10:15:46;;;;;;;1.10;1.10;;;14.80;93.20;;;;;;5075607;28;20443;-60
2024/04/04 10:18:12;;;;;;;1.40;0.73;;;14.90;93.20;;;;;;5075317;28;20423;-61
2024/04/04 10:20:43;;;;;;;1.33;0.90;;;15.10;93.40;;;;;;5075075;28;20404;-61
2024/04/04 10:23:13;;;;;;;4.20;2.33;;;15.30;92.90;;;;;;5075251;28;20404;-60
2024/04/04 10:25:43;;;;;;;1.90;1.30;;;15.50;91.90;;;;;;5075544;28;20407;-61
2024/04/04 10:28:09;;;;;;;1.87;0.83;;;15.70;91.50;;;;;;5075142;28;20435;-60
2024/04/04 10:30:35;;;;;;;0.73;0.67;;;15.70;90.90;;;;;;5074940;28;20413;-60
2024/04/04 10:33:14;;;;;;;1.60;0.60;;;15.50;91.10;;;;;;5075091;28;20404;-60
2024/04/04 10:35:40;;;;;;;1.47;1.10;;;15.30;91.20;;;;;;5075377;28;20455;-60
2024/04/04 10:38:09;;;;;;;2.77;1.33;;;15.20;91.30;;;;;;5074877;28;20905;-61
2024/04/04 10:40:36;;;;;;;1.63;1.33;;;15.20;91.40;;;;;;5074717;28;20439;-61
2024/04/04 10:43:07;;;;;;;1.20;1.10;;;14.70;92.10;;;;;;5075040;28;20433;-60
2024/04/04 10:45:33;;;;;;;2.00;1.50;;;14.90;92.60;;;;;;5074694;28;20503;-60
2024/04/04 10:47:59;;;;;;;3.73;1.83;;;15.00;92.70;;;;;;5074710;28;20954;-61
2024/04/04 10:50:27;;;;;;;2.00;1.00;;;15.10;92.80;;;;;;5074422;28;20435;-61
2024/04/04 10:52:53;;;;;;;5.00;1.70;;;15.20;92.90;;;;;;5074712;28;20818;-61
2024/04/04 10:55:20;;;;;;;1.17;0.73;;;15.20;93.10;;;;;;5074577;28;20476;-60
2024/04/04 10:57:51;;;;;;;1.10;0.97;;;15.20;93.50;;;;;;5074339;28;20794;-61
2024/04/04 11:00:19;;;;;;;1.10;0.60;;;15.30;93.60;;;;;;5074420;28;20396;-60
2024/04/04 11:02:46;;;;;;;4.00;0.97;;;15.20;95.90;;;;;;5074389;28;20422;-61
2024/04/04 11:05:12;;;;;;;0.73;0.70;;;15.20;96.30;;;;;;5074801;28;20429;-61
2024/04/04 11:07:42;;;;;;;1.77;1.27;;;15.00;97.40;;;;;;5074329;28;20845;-60
2024/04/04 11:10:14;;;;;;;1.93;1.03;;;14.90;98.30;;;;;;5074164;28;20410;-61
2024/04/04 11:12:40;;;;;;;4.03;0.63;;;14.70;97.90;;;;;;5074299;28;20407;-61
2024/04/04 11:15:07;;;;;;;3.93;1.40;;;14.80;98.20;;;;;;5074290;28;20795;-61
2024/04/04 11:17:34;;;;;;;1.27;0.80;;;14.70;96.70;;;;;;5074169;28;20420;-60
2024/04/04 11:20:14;;;;;;;2.30;0.70;;;14.60;97.60;;;;;;5074020;28;20497;-61
2024/04/04 11:22:41;;;;;;;0.87;0.70;;;14.50;99.00;;;;;;5073938;28;20464;-60
2024/04/04 11:25:08;;;;;;;0.70;0.60;;;14.30;99.80;;;;;;5073501;28;20404;-60
2024/04/04 11:27:36;;;;;;;0.50;0.50;;;14.10;99.90;;;;;;5073935;28;20430;-60
2024/04/04 11:30:02;;;;;;;1.33;0.73;;;14.00;99.90;;;;;;5073676;28;20410;-60
2024/04/04 11:32:28;;;;;;;1.00;0.80;;;14.10;99.90;;;;;;5073989;28;20415;-61
2024/04/04 11:34:54;;;;;;;1.20;1.00;;;14.20;99.90;;;;;;5073941;28;20465;-60
2024/04/04 11:37:20;;;;;;;1.13;0.60;;;14.50;99.90;;;;;;5073759;28;20204;-61
2024/04/04 11:39:46;;;;;;;0.83;0.83;;;14.60;99.90;;;;;;5073552;28;20404;-60
2024/04/04 11:42:11;;;;;;;1.00;0.60;;;14.60;99.90;;;;;;5073724;28;20183;-60
2024/04/04 11:44:37;;;;;;;5.07;0.83;;;14.50;99.90;;;;;;5073697;28;20502;-60
2024/04/04 11:47:03;;;;;;;1.40;1.30;;;14.50;99.90;;;;;;5073631;28;20226;-60
2024/04/04 11:49:30;;;;;;;2.40;0.97;;;14.50;99.90;;;;;;5073376;28;20441;-60
2024/04/04 11:51:56;;;;;;;2.40;1.10;;;14.50;99.90;;;;;;5073641;28;20474;-61
2024/04/04 11:54:23;;;;;;;2.80;0.97;;;14.40;99.90;;;;;;5073746;28;20839;-60
2024/04/04 11:56:48;;;;;;;0.93;0.60;;;14.30;99.90;;;;;;5073324;28;20520;-61
2024/04/04 11:59:14;;;;;;;3.90;1.00;;;14.30;99.90;;;;;;5073189;28;20451;-60
2024/04/04 12:01:40;;;;;;;1.43;1.10;;;14.40;99.90;;;;;;5073373;28;20219;-61
2024/04/04 12:04:08;;;;;;;2.90;2.70;;;14.40;99.90;;;;;;5073549;28;20184;-60
2024/04/04 12:06:34;;;;;;;0.83;0.80;;;14.30;99.90;;;;;;5073605;28;20411;-61
2024/04/04 12:09:00;;;;;;;1.60;1.10;;;14.30;99.40;;;;;;5073059;28;20427;-60
2024/04/04 12:11:25;;;;;;;1.60;0.77;;;14.20;99.20;;;;;;5073009;28;20173;-61
2024/04/04 12:13:52;;;;;;;1.70;1.20;;;14.00;99.60;;;;;;5073165;28;20256;-60
2024/04/04 12:16:21;;;;;;;14.20;6.77;;;13.70;99.90;;;;;;5073037;28;20580;-60
2024/04/04 12:21:31;;;;;;;2.50;1.53;;;13.60;99.90;;;;;;5072992;28;20983;-60
2024/04/04 12:23:57;;;;;;;5.13;1.00;;;13.50;99.90;;;;;;5071878;28;20447;-60
2024/04/04 12:26:23;;;;;;;5.87;0.93;;;13.20;99.90;;;;;;5072921;28;20175;-61
2024/04/04 12:28:56;;;;;;;2.77;1.97;;;13.20;99.90;;;;;;5071786;28;20928;-61
2024/04/04 12:31:22;;;;;;;6.67;4.33;;;13.10;99.90;;;;;;5072567;28;20421;-61
2024/04/04 12:33:47;;;;;;;3.40;1.33;;;13.00;99.90;;;;;;5072064;28;20407;-61
2024/04/04 12:36:14;;;;;;;1.50;1.00;;;13.00;99.90;;;;;;5072584;28;20656;-61
2024/04/04 12:38:40;;;;;;;2.83;1.43;;;13.00;99.90;;;;;;5072485;28;20200;-61
2024/04/04 12:41:06;;;;;;;3.93;1.30;;;13.10;99.90;;;;;;5072527;28;20403;-61
2024/04/04 12:43:32;;;;;;;1.80;0.87;;;13.10;99.90;;;;;;5072593;28;20227;-61
2024/04/04 12:46:03;;;;;;;0.90;0.63;;;13.20;99.90;;;;;;5072554;28;20408;-61